Time;durP1;ratioP1;P1;durP2;ratioP2;P2;SDS_P1;SDS_P2;PMS_P1;PMS_P2;Temp;Humidity;BMP_temperature;BMP_pressure;BME280_temperature;BME280_humidity;BME280_pressure;Samples;Min_cycle;Max_cycle;Signal;HPM_P1;HPM_P2
2022/07/23 00:00:40;;;;;;;4.82;4.25;;;;;;;18.18;63.48;99893.03;4819318;29;20098;-79
2022/07/23 00:03:07;;;;;;;8.95;4.60;;;;;;;18.18;63.27;99885.13;4820747;29;20050;-79
2022/07/23 00:05:33;;;;;;;8.05;4.80;;;;;;;18.13;63.46;99879.19;4819557;29;20045;-80
2022/07/23 00:07:59;;;;;;;8.73;4.95;;;;;;;18.12;63.37;99888.00;4820654;29;20211;-79
2022/07/23 00:10:25;;;;;;;11.68;4.82;;;;;;;18.09;63.26;99881.09;4830560;29;20410;-78
2022/07/23 00:12:51;;;;;;;7.47;5.07;;;;;;;18.09;63.60;99889.00;4822120;29;20080;-78
2022/07/23 00:15:18;;;;;;;6.45;4.80;;;;;;;18.10;63.82;99890.69;4815266;29;20043;-80
2022/07/23 00:17:44;;;;;;;6.97;4.70;;;;;;;18.12;63.85;99896.75;4818538;29;20054;-79
2022/07/23 00:20:11;;;;;;;11.40;4.68;;;;;;;18.01;63.91;99881.38;4805911;29;20049;-78
2022/07/23 00:22:55;;;;;;;12.05;4.85;;;;;;;18.10;63.91;99892.47;4813177;29;20482;-78
2022/07/23 00:25:23;;;;;;;8.50;4.57;;;;;;;18.03;63.72;99886.59;4816010;29;20046;-78
2022/07/23 00:27:49;;;;;;;5.88;4.38;;;;;;;18.05;64.05;99897.91;4817419;29;20050;-79
2022/07/23 00:30:15;;;;;;;11.45;4.80;;;;;;;18.01;63.91;99889.25;4817878;29;20046;-78
2022/07/23 00:32:46;;;;;;;10.73;5.05;;;;;;;17.88;64.10;99875.66;4816156;29;20050;-79
2022/07/23 00:35:12;;;;;;;8.15;4.70;;;;;;;17.96;64.28;99893.84;4829525;29;20136;-78
2022/07/23 00:37:39;;;;;;;6.25;4.43;;;;;;;17.97;64.24;99892.91;4818151;29;20061;-79
2022/07/23 00:40:06;;;;;;;9.30;5.25;;;;;;;17.93;64.27;99888.69;4814492;29;20137;-80
2022/07/23 00:42:32;;;;;;;7.93;4.88;;;;;;;17.94;64.61;99892.16;4794785;29;20046;-80
2022/07/23 00:44:59;;;;;;;8.23;4.70;;;;;;;17.89;64.55;99880.03;4800119;29;20099;-80
2022/07/23 00:47:25;;;;;;;10.43;4.20;;;;;;;17.94;64.43;99885.13;4816108;29;20051;-78
2022/07/23 00:49:52;;;;;;;7.60;4.72;;;;;;;17.94;64.71;99884.25;4817153;29;20046;-79
2022/07/23 00:52:19;;;;;;;7.53;4.95;;;;;;;17.92;64.62;99879.06;4819135;29;20179;-78
2022/07/23 00:54:45;;;;;;;6.63;4.78;;;;;;;17.96;64.73;99896.47;4816593;29;20381;-78
2022/07/23 00:57:11;;;;;;;6.05;4.40;;;;;;;17.92;64.63;99889.59;4827551;29;20054;-78
2022/07/23 00:59:39;;;;;;;9.70;5.40;;;;;;;17.84;64.70;99891.66;4814929;29;20046;-78
2022/07/23 01:02:05;;;;;;;11.60;4.72;;;;;;;17.73;64.63;99886.78;4834923;29;20081;-77
2022/07/23 01:04:31;;;;;;;9.25;4.80;;;;;;;17.75;65.04;99898.13;4826906;29;20050;-78
2022/07/23 01:06:58;;;;;;;8.77;4.72;;;;;;;17.74;65.07;99902.53;4817432;29;20493;-78
2022/07/23 01:09:25;;;;;;;8.80;5.30;;;;;;;17.62;65.51;99884.56;4829873;29;20054;-78
2022/07/23 01:11:53;;;;;;;9.80;5.47;;;;;;;17.63;65.41;99896.78;4784048;29;20034;-82
2022/07/23 01:14:21;;;;;;;10.15;4.97;;;;;;;17.63;65.83;99898.59;4816980;29;20046;-78
2022/07/23 01:16:49;;;;;;;7.20;4.70;;;;;;;17.54;65.72;99895.34;4829426;29;20145;-76
2022/07/23 01:19:18;;;;;;;9.43;4.70;;;;;;;17.56;65.85;99896.16;4829569;29;20046;-79
2022/07/23 01:21:48;;;;;;;8.63;4.70;;;;;;;17.58;65.77;99894.34;4795982;29;20069;-78
2022/07/23 01:24:16;;;;;;;9.70;5.32;;;;;;;17.52;65.98;99898.97;4812800;29;20050;-81
2022/07/23 01:26:56;;;;;;;10.35;4.95;;;;;;;17.45;66.13;99891.28;4811616;29;20050;-78
2022/07/23 01:29:22;;;;;;;9.20;4.78;;;;;;;17.46;66.05;99890.38;4813394;29;20057;-78
2022/07/23 01:31:49;;;;;;;11.35;5.65;;;;;;;17.48;65.87;99890.31;4815840;29;20477;-77
2022/07/23 01:34:15;;;;;;;9.20;5.43;;;;;;;17.54;66.19;99898.00;4833314;29;20133;-77
2022/07/23 01:36:41;;;;;;;15.60;5.07;;;;;;;17.53;66.34;99898.91;4815455;29;20062;-79
2022/07/23 01:39:09;;;;;;;15.52;5.68;;;;;;;17.46;65.96;99894.78;4812968;29;20195;-79
2022/07/23 01:41:35;;;;;;;12.98;5.50;;;;;;;17.34;66.53;99882.06;4828494;29;20466;-78
2022/07/23 01:44:02;;;;;;;27.63;6.80;;;;;;;17.42;66.26;99895.81;4798834;29;20141;-78
2022/07/23 01:46:29;;;;;;;11.77;5.93;;;;;;;17.34;66.42;99885.53;4834346;29;20081;-78
2022/07/23 01:48:56;;;;;;;13.15;5.25;;;;;;;17.42;66.39;99894.03;4836424;29;20114;-78
2022/07/23 01:52:00;;;;;;;10.77;5.40;;;;;;;17.44;66.49;99893.97;4820215;29;20050;-76
2022/07/23 01:54:33;;;;;;;11.77;5.43;;;;;;;17.50;66.53;99891.13;4816742;29;20459;-78
2022/07/23 01:57:00;;;;;;;13.18;5.88;;;;;;;17.55;66.62;99896.19;4827528;29;20098;-78
2022/07/23 01:59:28;;;;;;;9.85;5.10;;;;;;;17.61;66.43;99894.22;4834801;29;20042;-77
2022/07/23 02:01:54;;;;;;;9.32;4.97;;;;;;;17.65;66.40;99883.59;4797621;29;20130;-77
2022/07/23 02:04:21;;;;;;;10.48;5.25;;;;;;;17.71;66.55;99889.50;4799885;29;20050;-80
2022/07/23 02:06:48;;;;;;;13.07;5.43;;;;;;;17.77;66.29;99891.03;4815836;29;20107;-78
2022/07/23 02:09:15;;;;;;;11.05;5.47;;;;;;;17.82;66.48;99896.09;4831365;29;20145;-78
2022/07/23 02:11:41;;;;;;;8.73;5.10;;;;;;;17.82;66.58;99881.19;4799062;29;20042;-79
2022/07/23 02:14:08;;;;;;;10.35;5.13;;;;;;;17.87;66.26;99878.38;4815114;29;20053;-78
2022/07/23 02:16:35;;;;;;;9.93;4.88;;;;;;;18.00;66.30;99898.06;4822773;29;20054;-77
2022/07/23 02:19:03;;;;;;;8.35;4.72;;;;;;;18.06;66.23;99894.38;4824457;29;20082;-78
2022/07/23 02:21:29;;;;;;;8.15;5.50;;;;;;;18.10;65.86;99890.69;4816022;29;20507;-78
2022/07/23 02:23:55;;;;;;;10.20;5.03;;;;;;;18.14;66.10;99886.16;4803137;29;20103;-79
2022/07/23 02:26:21;;;;;;;9.02;5.18;;;;;;;18.25;66.07;99898.91;4819959;29;20042;-77
2022/07/23 02:28:52;;;;;;;8.93;5.13;;;;;;;18.31;66.15;99898.69;4828182;29;20050;-77
2022/07/23 02:31:19;;;;;;;8.93;5.30;;;;;;;18.29;65.64;99885.56;4816304;29;20061;-77
2022/07/23 02:33:45;;;;;;;9.90;5.43;;;;;;;18.32;65.77;99882.81;4812334;29;20046;-78
2022/07/23 02:36:13;;;;;;;8.98;5.05;;;;;;;18.48;65.91;99890.09;4827344;29;20467;-77
2022/07/23 02:38:40;;;;;;;9.07;5.28;;;;;;;18.50;65.60;99881.22;4808909;29;20039;-76
2022/07/23 02:41:07;;;;;;;8.65;4.93;;;;;;;18.61;65.50;99880.78;4847422;29;20066;-77
2022/07/23 02:43:33;;;;;;;8.52;5.25;;;;;;;18.72;65.45;99887.38;4841877;29;20038;-79
2022/07/23 02:46:00;;;;;;;7.80;5.03;;;;;;;18.81;65.34;99887.00;4822778;29;20094;-76
2022/07/23 02:48:26;;;;;;;8.80;5.28;;;;;;;18.90;65.23;99893.66;4817211;29;20057;-78
2022/07/23 02:50:56;;;;;;;7.78;5.43;;;;;;;18.92;64.99;99878.66;4831068;29;20042;-80
2022/07/23 02:53:29;;;;;;;10.52;5.88;;;;;;;19.04;65.01;99887.84;4819234;29;20443;-79
2022/07/23 02:55:55;;;;;;;11.48;5.78;;;;;;;19.10;64.76;99888.44;4817019;29;20038;-78
2022/07/23 02:58:21;;;;;;;6.07;5.25;;;;;;;19.16;64.57;99882.03;4816288;29;20070;-79
2022/07/23 03:00:48;;;;;;;9.85;5.20;;;;;;;19.31;64.55;99892.84;4820778;29;20141;-78
2022/07/23 03:03:14;;;;;;;9.18;5.40;;;;;;;19.37;64.15;99895.19;4808348;29;20515;-77
2022/07/23 03:05:41;;;;;;;7.30;5.57;;;;;;;19.47;64.25;99893.88;4817066;29;20047;-80
2022/07/23 03:08:07;;;;;;;10.23;6.10;;;;;;;19.56;63.96;99882.91;4828808;29;20050;-79
2022/07/23 03:10:36;;;;;;;9.23;5.53;;;;;;;19.71;63.86;99891.91;4829352;29;20050;-77
2022/07/23 03:13:03;;;;;;;8.35;5.40;;;;;;;19.75;63.69;99889.97;4817944;29;20053;-78
2022/07/23 03:15:29;;;;;;;10.80;5.38;;;;;;;19.93;63.35;99900.69;4817972;29;20053;-79
2022/07/23 03:17:55;;;;;;;7.07;5.28;;;;;;;20.04;63.37;99898.38;4819560;29;20061;-78
2022/07/23 03:20:21;;;;;;;9.40;5.55;;;;;;;20.15;62.83;99898.75;4819223;29;20058;-80
2022/07/23 03:22:47;;;;;;;8.90;5.07;;;;;;;20.25;62.93;99893.00;4818272;29;20103;-80
2022/07/23 03:25:15;;;;;;;9.70;4.90;;;;;;;20.37;62.54;99897.72;4834425;29;20101;-79
2022/07/23 03:27:42;;;;;;;8.23;5.38;;;;;;;20.45;62.46;99889.41;4810456;29;20054;-78
2022/07/23 03:30:09;;;;;;;10.13;5.22;;;;;;;20.58;62.19;99900.25;4803257;29;20074;-78
2022/07/23 03:32:35;;;;;;;7.63;5.30;;;;;;;20.70;62.05;99898.78;4788036;29;20039;-77
2022/07/23 03:35:02;;;;;;;8.63;5.32;;;;;;;20.79;61.79;99893.06;4819506;29;20097;-78
2022/07/23 03:37:29;;;;;;;5.88;4.95;;;;;;;20.92;61.38;99902.13;4817615;29;20526;-77
2022/07/23 03:39:57;;;;;;;8.35;5.43;;;;;;;21.05;61.10;99905.00;4815052;29;20054;-78
2022/07/23 03:42:23;;;;;;;8.73;5.35;;;;;;;21.21;61.01;99902.38;4814446;29;20057;-77
2022/07/23 03:44:49;;;;;;;11.55;6.05;;;;;;;21.34;61.02;99894.69;4818031;29;20489;-77
2022/07/23 03:47:17;;;;;;;11.15;5.70;;;;;;;21.48;60.45;99895.75;4827440;29;20066;-78
2022/07/23 03:49:44;;;;;;;7.95;5.18;;;;;;;21.60;60.74;99894.25;4816680;29;20539;-77
2022/07/23 03:52:10;;;;;;;9.10;5.47;;;;;;;21.76;59.88;99903.09;4813192;29;20074;-79
2022/07/23 03:54:36;;;;;;;10.02;5.53;;;;;;;21.88;59.82;99892.78;4826793;29;20094;-77
2022/07/23 03:57:02;;;;;;;13.85;6.13;;;;;;;21.99;59.66;99889.53;4818644;29;20065;-77
2022/07/23 03:59:28;;;;;;;8.05;5.63;;;;;;;22.23;59.14;99896.13;4816312;29;20529;-81
2022/07/23 04:01:55;;;;;;;9.68;6.13;;;;;;;22.34;59.09;99892.03;4816672;29;20046;-79
2022/07/23 04:04:21;;;;;;;18.23;5.70;;;;;;;22.49;58.86;99891.19;4817749;29;20043;-79
2022/07/23 04:06:47;;;;;;;8.85;5.35;;;;;;;22.70;58.50;99885.56;4800788;29;20123;-77
2022/07/23 04:09:14;;;;;;;9.20;5.22;;;;;;;22.82;58.29;99884.88;4808564;29;20050;-78
2022/07/23 04:11:40;;;;;;;10.25;5.82;;;;;;;22.96;57.85;99886.69;4817698;29;20066;-77
2022/07/23 04:14:07;;;;;;;8.52;5.63;;;;;;;23.16;57.54;99896.13;4833676;29;20054;-79
2022/07/23 04:16:34;;;;;;;9.45;5.78;;;;;;;23.34;57.28;99893.31;4829676;29;20030;-79
2022/07/23 04:19:00;;;;;;;8.38;6.13;;;;;;;23.45;57.02;99885.56;4853201;29;20444;-78
2022/07/23 04:21:31;;;;;;;7.68;5.85;;;;;;;23.65;56.72;99888.78;4835281;29;20053;-79
2022/07/23 04:23:57;;;;;;;8.63;5.47;;;;;;;23.83;56.34;99893.91;4805234;29;20046;-78
2022/07/23 04:26:23;;;;;;;11.45;6.10;;;;;;;23.96;55.88;99886.84;4809648;29;20095;-77
2022/07/23 04:28:49;;;;;;;11.38;5.80;;;;;;;24.13;55.27;99887.63;4802760;29;20030;-77
2022/07/23 04:31:15;;;;;;;10.07;6.28;;;;;;;24.23;54.73;99888.72;4857668;29;20064;-80
2022/07/23 04:33:42;;;;;;;10.93;5.30;;;;;;;24.39;54.72;99885.06;4842450;29;20080;-79
2022/07/23 04:36:09;;;;;;;8.93;5.55;;;;;;;24.60;54.07;99890.78;4853045;29;20106;-79
2022/07/23 04:38:35;;;;;;;8.52;6.40;;;;;;;24.78;53.66;99891.41;4849157;29;20081;-81
2022/07/23 04:41:03;;;;;;;9.63;6.47;;;;;;;24.91;53.15;99884.28;4812715;29;20047;-78
2022/07/23 04:43:30;;;;;;;11.82;6.47;;;;;;;25.04;52.95;99878.16;4819346;29;20056;-78
2022/07/23 04:45:56;;;;;;;7.22;5.63;;;;;;;25.13;52.36;99879.31;4815658;29;20058;-78
2022/07/23 04:48:23;;;;;;;9.10;7.00;;;;;;;25.34;52.08;99884.97;4816199;29;20058;-78
2022/07/23 04:50:56;;;;;;;6.95;6.15;;;;;;;25.43;51.66;99873.72;4814199;29;20538;-80
2022/07/23 04:53:23;;;;;;;11.98;6.38;;;;;;;25.65;51.67;99888.19;4814813;29;20051;-77
2022/07/23 04:55:53;;;;;;;11.93;6.50;;;;;;;25.64;50.73;99876.66;4817521;29;20069;-80
2022/07/23 04:58:20;;;;;;;9.50;6.50;;;;;;;25.82;51.05;99874.50;4812957;29;20062;-79
2022/07/23 05:00:46;;;;;;;8.95;6.47;;;;;;;25.94;50.67;99883.44;4812398;29;20545;-81
2022/07/23 05:03:12;;;;;;;7.88;6.25;;;;;;;26.07;50.03;99880.72;4809152;29;20140;-79
2022/07/23 05:05:38;;;;;;;8.98;6.35;;;;;;;26.20;49.90;99883.38;4826541;29;20050;-79
2022/07/23 05:08:10;;;;;;;10.40;6.65;;;;;;;26.24;49.32;99882.19;4810745;29;20038;-77
2022/07/23 05:10:38;;;;;;;10.52;6.25;;;;;;;26.30;48.90;99878.22;4795654;29;20050;-80
2022/07/23 05:13:04;;;;;;;11.10;6.32;;;;;;;26.44;49.03;99879.88;4812274;29;20393;-80
2022/07/23 05:15:30;;;;;;;13.00;6.75;;;;;;;26.62;48.67;99877.63;4828993;29;20145;-77
2022/07/23 05:17:56;;;;;;;10.98;5.85;;;;;;;26.82;48.62;99870.81;4834544;29;20046;-78
2022/07/23 05:20:22;;;;;;;9.07;5.80;;;;;;;26.96;48.20;99869.78;4822880;29;20155;-79
2022/07/23 05:22:48;;;;;;;8.75;5.95;;;;;;;27.12;47.78;99868.56;4804632;29;20082;-80
2022/07/23 05:25:16;;;;;;;11.75;6.68;;;;;;;27.28;47.31;99863.75;4822343;29;20047;-78
2022/07/23 05:27:42;;;;;;;11.48;6.65;;;;;;;27.42;47.05;99867.16;4825233;29;20042;-80
2022/07/23 05:30:09;;;;;;;8.57;6.35;;;;;;;27.55;46.83;99859.06;4818108;29;20137;-78
2022/07/23 05:32:37;;;;;;;10.57;6.18;;;;;;;27.91;46.43;99871.31;4819636;29;20055;-80
2022/07/23 05:35:16;;;;;;;7.20;5.90;;;;;;;28.18;45.88;99848.66;4804064;29;20047;-77
2022/07/23 05:37:49;;;;;;;7.22;5.80;;;;;;;28.48;45.14;99863.13;4800532;29;20057;-81
2022/07/23 05:40:16;;;;;;;8.77;6.18;;;;;;;28.68;44.84;99866.84;4818062;29;20039;-78
2022/07/23 05:42:43;;;;;;;9.45;5.90;;;;;;;28.84;43.99;99865.56;4806049;29;20054;-78
2022/07/23 05:45:10;;;;;;;8.35;6.18;;;;;;;29.00;43.79;99865.09;4835486;29;20057;-78
2022/07/23 05:47:49;;;;;;;7.57;5.90;;;;;;;29.61;43.53;99869.66;4804566;29;20042;-80
2022/07/23 05:50:25;;;;;;;7.72;5.53;;;;;;;30.97;42.21;99860.22;4832261;29;20042;-79
2022/07/23 05:52:57;;;;;;;8.77;4.80;;;;;;;33.02;39.25;99839.31;4800715;29;20038;-79
2022/07/23 05:55:42;;;;;;;6.28;5.47;;;;;;;35.14;36.92;99850.94;4835236;29;20066;-79
2022/07/23 05:58:08;;;;;;;11.57;5.25;;;;;;;36.78;33.81;99847.50;4826338;29;20062;-77
2022/07/23 06:00:35;;;;;;;9.32;5.57;;;;;;;38.02;31.44;99844.38;4801924;29;20050;-80
2022/07/23 06:03:01;;;;;;;7.80;5.00;;;;;;;39.40;29.76;99848.66;4815800;29;20046;-80
2022/07/23 06:05:30;;;;;;;8.32;5.30;;;;;;;40.59;27.91;99845.63;4816282;29;20061;-79
2022/07/23 06:07:57;;;;;;;8.00;5.35;;;;;;;41.61;26.59;99841.66;4816431;29;20055;-79
2022/07/23 06:10:25;;;;;;;5.88;4.72;;;;;;;42.49;24.92;99856.47;4798707;29;20050;-80
2022/07/23 06:12:51;;;;;;;7.00;5.20;;;;;;;43.34;23.61;99854.22;4814218;29;20668;-79
2022/07/23 06:15:18;;;;;;;7.70;5.10;;;;;;;44.21;22.46;99847.56;4827030;29;20106;-80
2022/07/23 06:17:44;;;;;;;6.25;5.45;;;;;;;44.68;21.54;99849.56;4813224;29;20067;-84
2022/07/23 06:20:11;;;;;;;6.57;4.88;;;;;;;45.39;20.71;99847.81;4828074;29;20621;-80
2022/07/23 06:22:39;;;;;;;6.88;5.20;;;;;;;45.83;20.19;99839.09;4829141;29;20379;-80
2022/07/23 06:25:06;;;;;;;5.55;5.00;;;;;;;46.45;19.33;99852.03;4816048;29;20116;-78
2022/07/23 06:27:33;;;;;;;5.30;4.80;;;;;;;46.86;18.66;99851.00;4805630;29;20106;-79
2022/07/23 06:29:59;;;;;;;6.63;5.38;;;;;;;47.39;18.21;99845.06;4815421;29;20139;-78
2022/07/23 06:32:25;;;;;;;9.18;5.43;;;;;;;47.79;17.68;99846.63;4820723;29;20067;-78
2022/07/23 06:34:51;;;;;;;9.32;4.93;;;;;;;48.23;17.24;99843.72;4820502;29;20644;-79
2022/07/23 06:37:20;;;;;;;;;;;;;;;48.62;16.83;99842.66;4820296;29;20613;-82
2022/07/23 06:39:46;;;;;;;8.52;5.30;;;;;;;49.05;16.67;99834.38;4818088;29;19978;-78
2022/07/23 06:42:13;;;;;;;7.80;5.63;;;;;;;49.38;15.82;99837.81;4818641;29;20538;-81
2022/07/23 06:44:44;;;;;;;7.82;5.10;;;;;;;50.10;15.09;99819.72;4821070;29;20038;-80
2022/07/23 06:47:10;;;;;;;5.45;4.95;;;;;;;50.63;15.01;99823.03;4816323;29;20534;-78
2022/07/23 06:49:36;;;;;;;7.57;5.22;;;;;;;51.22;13.79;99833.63;4817572;29;20125;-82
2022/07/23 06:52:03;;;;;;;6.60;5.78;;;;;;;51.51;13.44;99819.91;4822198;29;20148;-80
2022/07/23 06:54:29;;;;;;;9.18;5.20;;;;;;;52.10;13.29;99830.28;4820228;29;20388;-79
2022/07/23 06:56:55;;;;;;;6.00;4.95;;;;;;;52.08;13.18;99824.22;4802896;29;20050;-80
2022/07/23 06:59:21;;;;;;;6.53;5.55;;;;;;;51.98;12.94;99827.88;4832434;29;20053;-87
2022/07/23 07:01:47;;;;;;;8.70;5.05;;;;;;;52.32;12.79;99823.44;4816982;29;20054;-82
2022/07/23 07:04:14;;;;;;;5.75;5.22;;;;;;;52.19;12.74;99805.53;4815180;29;20094;-79
2022/07/23 07:06:40;;;;;;;5.78;5.18;;;;;;;52.70;12.78;99818.91;4811055;29;20065;-80
2022/07/23 07:09:06;;;;;;;7.28;5.47;;;;;;;53.21;12.21;99811.06;4826560;29;20042;-78
2022/07/23 07:11:32;;;;;;;6.38;5.55;;;;;;;53.66;11.60;99821.81;4815376;29;20046;-79
2022/07/23 07:13:58;;;;;;;5.68;4.90;;;;;;;53.56;11.29;99814.44;4819220;29;20049;-81
2022/07/23 07:16:24;;;;;;;6.78;5.25;;;;;;;53.45;11.79;99818.53;4818958;29;20106;-79
2022/07/23 07:18:50;;;;;;;8.43;5.50;;;;;;;53.78;11.21;99817.75;4800330;29;20359;-77
2022/07/23 07:21:16;;;;;;;5.90;5.22;;;;;;;54.25;10.74;99823.34;4817914;29;20055;-79
2022/07/23 07:23:43;;;;;;;5.47;5.07;;;;;;;54.53;10.52;99815.06;4815556;29;20133;-78
2022/07/23 07:26:09;;;;;;;6.25;5.60;;;;;;;54.87;10.64;99811.88;4820512;29;20038;-77
2022/07/23 07:28:35;;;;;;;6.70;6.10;;;;;;;54.94;10.13;99819.84;4829598;29;20046;-78
2022/07/23 07:31:01;;;;;;;6.50;5.57;;;;;;;55.04;10.48;99816.84;4844529;29;20061;-78
2022/07/23 07:33:27;;;;;;;6.05;5.60;;;;;;;55.19;9.55;99812.84;4835344;29;20038;-76
2022/07/23 07:35:53;;;;;;;6.18;5.65;;;;;;;55.45;9.74;99828.22;4829035;29;20050;-78
2022/07/23 07:38:19;;;;;;;6.75;6.03;;;;;;;55.62;9.37;99819.19;4820332;29;20071;-79
2022/07/23 07:40:46;;;;;;;5.85;5.38;;;;;;;55.72;9.42;99815.31;4831717;29;20051;-78
2022/07/23 07:43:12;;;;;;;7.32;5.90;;;;;;;56.07;9.29;99815.56;4800188;29;20137;-77
2022/07/23 07:45:38;;;;;;;6.28;5.68;;;;;;;55.87;9.04;99808.50;4819941;29;20058;-80
2022/07/23 07:48:05;;;;;;;6.32;5.72;;;;;;;56.64;8.45;99817.66;4819447;29;20551;-82
2022/07/23 07:50:31;;;;;;;6.50;5.90;;;;;;;56.95;8.53;99807.56;4818635;29;20050;-78
2022/07/23 07:52:57;;;;;;;6.70;5.95;;;;;;;57.33;8.64;99820.09;4820271;29;20054;-78
2022/07/23 07:55:23;;;;;;;6.82;6.22;;;;;;;57.46;8.04;99813.50;4821118;29;20251;-80
2022/07/23 07:57:50;;;;;;;7.10;6.50;;;;;;;57.60;8.72;99811.41;4828975;29;20062;-79
2022/07/23 08:00:17;;;;;;;6.65;6.07;;;;;;;57.72;8.19;99812.69;4827401;29;20081;-77
2022/07/23 08:02:45;;;;;;;6.68;6.10;;;;;;;57.42;8.59;99816.16;4821139;29;20057;-78
2022/07/23 08:05:13;;;;;;;6.43;5.93;;;;;;;56.62;8.57;99817.16;4821689;29;20043;-84
2022/07/23 08:07:39;;;;;;;6.93;6.22;;;;;;;56.49;8.90;99813.28;4821313;29;20514;-83
2022/07/23 08:10:08;;;;;;;6.63;6.13;;;;;;;56.81;8.81;99805.72;4817930;29;20513;-77
2022/07/23 08:12:44;;;;;;;;;;;;;;;57.05;8.54;99817.59;4818079;29;20043;-84
2022/07/23 08:15:11;;;;;;;7.40;6.80;;;;;;;57.26;8.06;99810.22;4815997;29;19924;-78
2022/07/23 08:17:37;;;;;;;7.00;6.50;;;;;;;57.15;8.18;99806.91;4819539;29;20054;-84
2022/07/23 08:20:05;;;;;;;7.18;6.68;;;;;;;55.57;8.55;99808.94;4818634;29;20051;-82
2022/07/23 08:22:54;;;;;;;7.05;6.50;;;;;;;54.63;9.20;99807.38;4803730;29;20050;-78
2022/07/23 08:25:23;;;;;;;6.85;6.38;;;;;;;55.00;9.13;99804.69;4828730;29;20043;-83
2022/07/23 08:27:50;;;;;;;8.02;6.45;;;;;;;55.60;8.42;99804.75;4819295;29;20054;-80
2022/07/23 08:30:17;;;;;;;6.72;6.22;;;;;;;54.93;9.23;99801.47;4833266;29;20503;-79
2022/07/23 08:32:54;;;;;;;6.85;6.35;;;;;;;54.69;9.50;99790.56;4821439;29;20140;-79
2022/07/23 08:35:31;;;;;;;6.95;6.45;;;;;;;55.47;8.92;99798.06;4820528;29;20050;-79
2022/07/23 08:37:58;;;;;;;7.05;6.30;;;;;;;55.96;8.50;99804.66;4835368;29;20073;-78
2022/07/23 08:40:31;;;;;;;8.80;6.22;;;;;;;55.71;8.56;99794.16;4826504;29;20045;-77
2022/07/23 08:43:00;;;;;;;7.82;7.05;;;;;;;56.19;8.48;99792.63;4823778;29;20056;-79
2022/07/23 08:45:27;;;;;;;8.55;7.68;;;;;;;56.03;8.99;99801.44;4810592;29;20051;-79
2022/07/23 08:47:56;;;;;;;6.43;5.93;;;;;;;55.53;8.84;99785.63;4818408;29;20507;-80
2022/07/23 08:50:23;;;;;;;7.80;7.00;;;;;;;54.96;8.98;99786.94;4819024;29;20057;-79
2022/07/23 08:52:51;;;;;;;6.95;6.35;;;;;;;54.75;9.48;99783.72;4802255;29;20503;-81
2022/07/23 08:55:20;;;;;;;7.45;6.75;;;;;;;55.07;8.83;99782.75;4819650;29;20043;-79
2022/07/23 08:57:52;;;;;;;7.28;6.63;;;;;;;54.96;8.51;99777.78;4820806;29;20093;-79
2022/07/23 09:00:20;;;;;;;7.53;6.97;;;;;;;54.12;9.38;99763.78;4816259;29;20103;-79
2022/07/23 09:02:47;;;;;;;8.07;7.35;;;;;;;54.54;9.28;99774.97;4817994;29;20046;-84
2022/07/23 09:05:14;;;;;;;7.40;6.80;;;;;;;54.94;8.96;99767.75;4818086;29;20599;-80
2022/07/23 09:08:07;;;;;;;7.43;6.73;;;;;;;55.27;9.00;99769.56;4835987;29;20081;-79
2022/07/23 09:10:57;;;;;;;7.43;6.68;;;;;;;56.02;8.46;99771.88;4824911;29;20038;-83
2022/07/23 09:13:24;;;;;;;8.10;7.30;;;;;;;56.40;8.09;99765.81;4818365;29;20061;-83
2022/07/23 09:15:52;;;;;;;8.35;6.85;;;;;;;56.27;7.83;99764.00;4817226;29;20076;-82
2022/07/23 09:18:18;;;;;;;7.75;7.05;;;;;;;55.84;8.18;99770.94;4817775;29;20100;-80
2022/07/23 09:20:45;;;;;;;8.27;7.57;;;;;;;53.93;9.01;99755.50;4798105;29;20042;-82
2022/07/23 09:23:11;;;;;;;7.25;6.72;;;;;;;51.77;10.26;99755.97;4817005;29;20134;-81
2022/07/23 09:25:37;;;;;;;7.57;6.88;;;;;;;49.73;11.22;99750.59;4828158;29;20038;-81
2022/07/23 09:28:03;;;;;;;7.40;6.80;;;;;;;48.66;11.91;99750.00;4807133;29;20114;-82
2022/07/23 09:30:31;;;;;;;9.88;7.60;;;;;;;49.95;11.06;99752.28;4815259;29;20049;-82
2022/07/23 09:33:08;;;;;;;7.90;7.10;;;;;;;51.40;10.40;99751.00;4818893;29;20511;-79
2022/07/23 09:35:44;;;;;;;7.97;7.28;;;;;;;52.52;9.97;99748.34;4813947;29;20046;-80
2022/07/23 09:38:12;;;;;;;7.00;6.40;;;;;;;53.08;9.82;99742.38;4816991;29;20042;-81
2022/07/23 09:40:38;;;;;;;7.97;7.25;;;;;;;53.44;9.34;99739.06;4802540;29;20046;-82
2022/07/23 09:43:04;;;;;;;7.63;6.93;;;;;;;54.01;9.50;99738.13;4832113;29;20047;-79
2022/07/23 09:45:30;;;;;;;8.00;7.40;;;;;;;54.41;9.09;99744.03;4823982;29;20046;-80
2022/07/23 09:48:15;;;;;;;7.90;7.00;;;;;;;54.13;8.95;99737.63;4815963;29;20058;-79
2022/07/23 09:50:42;;;;;;;7.38;6.75;;;;;;;54.30;8.78;99739.84;4816395;29;20525;-80
2022/07/23 09:53:09;;;;;;;7.35;6.75;;;;;;;54.37;9.19;99744.97;4832890;29;20168;-80
2022/07/23 09:55:37;;;;;;;9.48;7.13;;;;;;;54.74;9.19;99746.72;4816540;29;20452;-80
2022/07/23 09:58:06;;;;;;;7.80;7.20;;;;;;;55.26;9.22;99742.84;4814497;29;20074;-81
2022/07/23 10:00:33;;;;;;;9.90;9.10;;;;;;;55.56;8.15;99736.81;4815205;29;20058;-80
2022/07/23 10:03:01;;;;;;;8.57;7.88;;;;;;;54.79;8.85;99732.69;4817079;29;20406;-78
2022/07/23 10:05:48;;;;;;;7.47;6.78;;;;;;;53.90;9.01;99738.31;4811841;29;20054;-79
2022/07/23 10:08:32;;;;;;;7.97;7.28;;;;;;;53.67;8.94;99725.38;4816093;29;20038;-79
2022/07/23 10:11:17;;;;;;;7.90;7.40;;;;;;;53.39;9.01;99725.25;4832349;29;20042;-82
2022/07/23 10:13:59;;;;;;;8.48;7.32;;;;;;;52.75;9.81;99722.81;4817640;29;20074;-79
2022/07/23 10:16:51;;;;;;;8.00;7.30;;;;;;;53.23;9.81;99727.41;4798038;29;20046;-80
2022/07/23 10:19:18;;;;;;;8.27;7.47;;;;;;;53.69;8.92;99723.13;4814763;29;20530;-81
2022/07/23 10:21:49;;;;;;;8.63;7.20;;;;;;;53.85;8.46;99716.16;4817262;29;20115;-81
2022/07/23 10:24:45;;;;;;;8.02;7.32;;;;;;;53.92;8.62;99715.72;4809482;29;20198;-83
2022/07/23 10:27:39;;;;;;;8.43;7.72;;;;;;;54.05;8.30;99709.41;4801518;29;20046;-79
2022/07/23 10:30:35;;;;;;;7.88;7.28;;;;;;;54.18;8.73;99716.09;4811882;29;20407;-85
2022/07/23 10:33:29;;;;;;;7.60;7.00;;;;;;;54.20;8.89;99715.78;4816841;29;20187;-81
2022/07/23 10:36:11;;;;;;;8.13;7.38;;;;;;;52.32;9.22;99688.38;4832352;29;20508;-81
2022/07/23 10:39:03;;;;;;;7.75;7.05;;;;;;;49.93;10.89;99707.50;4829853;29;20050;-81
2022/07/23 10:41:35;;;;;;;7.40;6.80;;;;;;;47.28;12.29;99695.44;4807982;29;20042;-81
2022/07/23 10:44:16;;;;;;;7.60;7.00;;;;;;;45.83;13.57;99694.31;4806714;29;20117;-81
2022/07/23 10:49:36;;;;;;;8.57;7.47;;;;;;;43.68;14.87;99689.53;4816487;29;20050;-83
2022/07/23 10:52:14;;;;;;;8.18;7.50;;;;;;;42.97;15.43;99692.78;4802479;29;20107;-79
2022/07/23 10:54:41;;;;;;;8.48;7.63;;;;;;;42.49;15.82;99673.34;4825255;29;20070;-83
2022/07/23 10:57:09;;;;;;;9.98;9.07;;;;;;;42.10;16.05;99686.31;4816555;29;20066;-81
2022/07/23 11:00:10;;;;;;;7.93;7.05;;;;;;;41.41;16.98;99673.38;4817343;29;21131;-81
2022/07/23 11:02:38;;;;;;;8.98;7.85;;;;;;;40.76;17.37;99664.22;4794162;29;20058;-82
2022/07/23 11:05:16;;;;;;;8.45;7.63;;;;;;;40.18;18.35;99679.41;4818130;29;20077;-81
2022/07/23 11:08:04;;;;;;;8.75;7.95;;;;;;;39.72;18.98;99667.47;4804826;29;20053;-84
2022/07/23 11:10:48;;;;;;;8.27;7.07;;;;;;;39.19;19.18;99678.22;4817968;29;20136;-81
2022/07/23 11:13:41;;;;;;;8.40;7.65;;;;;;;38.58;19.97;99669.78;4815294;29;20122;-83
2022/07/23 11:16:20;;;;;;;8.05;7.30;;;;;;;37.96;20.42;99661.41;4805219;29;20177;-83
2022/07/23 11:18:56;;;;;;;14.77;8.15;;;;;;;37.42;20.50;99674.41;4821596;29;20149;-80
2022/07/23 11:24:16;;;;;;;7.85;7.15;;;;;;;36.61;21.73;99670.72;4830181;29;20109;-82
2022/07/23 11:26:48;;;;;;;8.43;7.55;;;;;;;36.47;22.01;99671.56;4830416;29;20054;-82
2022/07/23 11:29:28;;;;;;;10.43;7.88;;;;;;;36.21;22.16;99670.09;4844876;29;20046;-80
2022/07/23 11:31:58;;;;;;;8.40;7.53;;;;;;;36.03;22.69;99674.00;4845099;29;20050;-79
2022/07/23 11:34:41;;;;;;;9.13;8.23;;;;;;;35.78;22.99;99673.31;4842725;29;20115;-81
2022/07/23 11:37:25;;;;;;;8.95;8.15;;;;;;;35.44;23.63;99661.03;4841931;29;20055;-80
2022/07/23 11:39:55;;;;;;;10.02;8.43;;;;;;;35.27;23.69;99658.44;4841580;29;20031;-83
2022/07/23 11:42:23;;;;;;;9.70;7.97;;;;;;;35.18;23.78;99661.38;4842204;29;20054;-83
2022/07/23 11:44:50;;;;;;;10.10;8.27;;;;;;;35.04;23.92;99654.88;4830598;29;20103;-81
2022/07/23 11:47:25;;;;;;;9.20;7.43;;;;;;;34.76;24.17;99656.13;4806184;29;20629;-81
2022/07/23 11:49:57;;;;;;;10.13;7.72;;;;;;;34.44;24.51;99657.94;4819956;29;20573;-79